sensor_id;sensor_type;location;lat;lon;timestamp;P1;durP1;ratioP1;P2;durP2;ratioP2
11139;SDS011;5624;49.388;11.350;2022-08-23T00:01:32;5.47;;;4.87;;
11139;SDS011;5624;49.388;11.350;2022-08-23T00:04:01;5.67;;;5.07;;
11139;SDS011;5624;49.388;11.350;2022-08-23T00:06:30;5.53;;;4.97;;
11139;SDS011;5624;49.388;11.350;2022-08-23T00:08:56;5.27;;;4.67;;
11139;SDS011;5624;49.388;11.350;2022-08-23T00:11:24;6.97;;;4.53;;
11139;SDS011;5624;49.388;11.350;2022-08-23T00:13:49;6.93;;;4.90;;
11139;SDS011;5624;49.388;11.350;2022-08-23T00:16:15;6.30;;;4.73;;
11139;SDS011;5624;49.388;11.350;2022-08-23T00:18:40;8.27;;;4.73;;
11139;SDS011;5624;49.388;11.350;2022-08-23T00:21:06;4.53;;;3.97;;
11139;SDS011;5624;49.388;11.350;2022-08-23T00:23:32;6.50;;;4.90;;
11139;SDS011;5624;49.388;11.350;2022-08-23T00:26:00;5.23;;;4.60;;
11139;SDS011;5624;49.388;11.350;2022-08-23T00:28:26;6.07;;;5.43;;
11139;SDS011;5624;49.388;11.350;2022-08-23T00:30:53;6.23;;;4.70;;
11139;SDS011;5624;49.388;11.350;2022-08-23T00:33:19;6.80;;;5.03;;
11139;SDS011;5624;49.388;11.350;2022-08-23T00:35:45;9.93;;;5.37;;
11139;SDS011;5624;49.388;11.350;2022-08-23T00:38:11;7.33;;;5.23;;
11139;SDS011;5624;49.388;11.350;2022-08-23T00:40:37;7.13;;;5.27;;
11139;SDS011;5624;49.388;11.350;2022-08-23T00:43:04;7.13;;;5.57;;
11139;SDS011;5624;49.388;11.350;2022-08-23T00:46:14;6.60;;;5.33;;
11139;SDS011;5624;49.388;11.350;2022-08-23T00:49:01;6.93;;;5.50;;
11139;SDS011;5624;49.388;11.350;2022-08-23T00:51:33;7.00;;;5.33;;
11139;SDS011;5624;49.388;11.350;2022-08-23T00:54:32;5.10;;;4.60;;
11139;SDS011;5624;49.388;11.350;2022-08-23T00:57:00;5.80;;;5.00;;
11139;SDS011;5624;49.388;11.350;2022-08-23T00:59:29;6.60;;;5.70;;
11139;SDS011;5624;49.388;11.350;2022-08-23T01:01:56;8.40;;;5.30;;
11139;SDS011;5624;49.388;11.350;2022-08-23T01:04:24;5.77;;;5.07;;
11139;SDS011;5624;49.388;11.350;2022-08-23T01:07:03;8.30;;;5.43;;
11139;SDS011;5624;49.388;11.350;2022-08-23T01:09:43;5.60;;;4.80;;
11139;SDS011;5624;49.388;11.350;2022-08-23T01:12:13;7.10;;;5.20;;
11139;SDS011;5624;49.388;11.350;2022-08-23T01:17:17;6.60;;;5.63;;
11139;SDS011;5624;49.388;11.350;2022-08-23T01:19:53;6.83;;;5.70;;
11139;SDS011;5624;49.388;11.350;2022-08-23T01:25:17;7.00;;;6.03;;
11139;SDS011;5624;49.388;11.350;2022-08-23T01:27:45;6.40;;;5.43;;
11139;SDS011;5624;49.388;11.350;2022-08-23T01:30:12;7.27;;;5.80;;
11139;SDS011;5624;49.388;11.350;2022-08-23T01:32:45;6.33;;;4.73;;
11139;SDS011;5624;49.388;11.350;2022-08-23T01:35:16;6.77;;;5.30;;
11139;SDS011;5624;49.388;11.350;2022-08-23T01:37:42;5.80;;;4.87;;
11139;SDS011;5624;49.388;11.350;2022-08-23T01:40:09;8.37;;;4.73;;
11139;SDS011;5624;49.388;11.350;2022-08-23T01:42:34;6.23;;;5.37;;
11139;SDS011;5624;49.388;11.350;2022-08-23T01:45:00;6.47;;;5.10;;
11139;SDS011;5624;49.388;11.350;2022-08-23T01:47:26;6.50;;;5.70;;
11139;SDS011;5624;49.388;11.350;2022-08-23T01:49:52;7.90;;;5.87;;
11139;SDS011;5624;49.388;11.350;2022-08-23T01:52:17;6.30;;;5.70;;
11139;SDS011;5624;49.388;11.350;2022-08-23T01:54:43;6.80;;;6.20;;
11139;SDS011;5624;49.388;11.350;2022-08-23T01:57:09;7.07;;;6.20;;
11139;SDS011;5624;49.388;11.350;2022-08-23T01:59:35;7.57;;;5.37;;
11139;SDS011;5624;49.388;11.350;2022-08-23T02:02:02;8.00;;;6.00;;
11139;SDS011;5624;49.388;11.350;2022-08-23T02:04:27;6.53;;;4.93;;
11139;SDS011;5624;49.388;11.350;2022-08-23T02:06:53;6.47;;;5.47;;
11139;SDS011;5624;49.388;11.350;2022-08-23T02:09:19;6.73;;;5.83;;
11139;SDS011;5624;49.388;11.350;2022-08-23T02:11:45;6.57;;;5.00;;
11139;SDS011;5624;49.388;11.350;2022-08-23T02:14:13;5.93;;;5.27;;
11139;SDS011;5624;49.388;11.350;2022-08-23T02:16:44;8.83;;;5.37;;
11139;SDS011;5624;49.388;11.350;2022-08-23T02:19:12;9.17;;;5.20;;
11139;SDS011;5624;49.388;11.350;2022-08-23T02:21:39;7.13;;;5.13;;
11139;SDS011;5624;49.388;11.350;2022-08-23T02:24:07;7.40;;;4.80;;
11139;SDS011;5624;49.388;11.350;2022-08-23T02:26:35;8.53;;;6.13;;
11139;SDS011;5624;49.388;11.350;2022-08-23T02:29:03;6.50;;;5.57;;
11139;SDS011;5624;49.388;11.350;2022-08-23T02:31:29;7.43;;;5.87;;
11139;SDS011;5624;49.388;11.350;2022-08-23T02:33:55;6.97;;;6.27;;
11139;SDS011;5624;49.388;11.350;2022-08-23T02:36:21;7.70;;;5.87;;
11139;SDS011;5624;49.388;11.350;2022-08-23T02:38:46;7.73;;;5.47;;
11139;SDS011;5624;49.388;11.350;2022-08-23T02:41:12;7.47;;;6.37;;
11139;SDS011;5624;49.388;11.350;2022-08-23T02:43:38;6.10;;;5.20;;
11139;SDS011;5624;49.388;11.350;2022-08-23T02:46:04;6.33;;;5.70;;
11139;SDS011;5624;49.388;11.350;2022-08-23T02:48:31;7.77;;;5.80;;
11139;SDS011;5624;49.388;11.350;2022-08-23T02:51:00;6.63;;;6.03;;
11139;SDS011;5624;49.388;11.350;2022-08-23T02:53:27;7.67;;;5.57;;
11139;SDS011;5624;49.388;11.350;2022-08-23T02:55:53;6.87;;;5.93;;
11139;SDS011;5624;49.388;11.350;2022-08-23T02:58:19;6.03;;;5.43;;
11139;SDS011;5624;49.388;11.350;2022-08-23T03:00:46;7.40;;;6.27;;
11139;SDS011;5624;49.388;11.350;2022-08-23T03:03:12;7.07;;;5.63;;
11139;SDS011;5624;49.388;11.350;2022-08-23T03:05:38;6.87;;;5.40;;
11139;SDS011;5624;49.388;11.350;2022-08-23T03:08:03;7.17;;;6.47;;
11139;SDS011;5624;49.388;11.350;2022-08-23T03:10:29;7.90;;;7.10;;
11139;SDS011;5624;49.388;11.350;2022-08-23T03:12:55;7.67;;;6.80;;
11139;SDS011;5624;49.388;11.350;2022-08-23T03:15:21;7.60;;;5.97;;
11139;SDS011;5624;49.388;11.350;2022-08-23T03:17:47;7.33;;;6.53;;
11139;SDS011;5624;49.388;11.350;2022-08-23T03:20:12;7.17;;;6.47;;
11139;SDS011;5624;49.388;11.350;2022-08-23T03:22:39;6.90;;;6.03;;
11139;SDS011;5624;49.388;11.350;2022-08-23T03:25:05;7.40;;;5.77;;
11139;SDS011;5624;49.388;11.350;2022-08-23T03:27:32;6.60;;;5.87;;
11139;SDS011;5624;49.388;11.350;2022-08-23T03:29:58;8.07;;;5.80;;
11139;SDS011;5624;49.388;11.350;2022-08-23T03:32:25;7.90;;;6.00;;
11139;SDS011;5624;49.388;11.350;2022-08-23T03:34:52;8.57;;;6.37;;
11139;SDS011;5624;49.388;11.350;2022-08-23T03:37:17;10.20;;;6.00;;
11139;SDS011;5624;49.388;11.350;2022-08-23T03:39:44;8.70;;;6.80;;
11139;SDS011;5624;49.388;11.350;2022-08-23T03:42:10;6.47;;;5.87;;
11139;SDS011;5624;49.388;11.350;2022-08-23T03:44:36;7.30;;;6.13;;
11139;SDS011;5624;49.388;11.350;2022-08-23T03:47:01;7.30;;;5.80;;
11139;SDS011;5624;49.388;11.350;2022-08-23T03:49:29;7.43;;;6.27;;
11139;SDS011;5624;49.388;11.350;2022-08-23T03:51:55;7.07;;;6.23;;
11139;SDS011;5624;49.388;11.350;2022-08-23T03:54:22;6.27;;;5.50;;
11139;SDS011;5624;49.388;11.350;2022-08-23T03:56:55;6.60;;;5.80;;
11139;SDS011;5624;49.388;11.350;2022-08-23T03:59:26;7.87;;;5.90;;
11139;SDS011;5624;49.388;11.350;2022-08-23T04:01:53;8.47;;;6.33;;
11139;SDS011;5624;49.388;11.350;2022-08-23T04:04:19;7.23;;;6.43;;
11139;SDS011;5624;49.388;11.350;2022-08-23T04:06:45;10.40;;;6.40;;
11139;SDS011;5624;49.388;11.350;2022-08-23T04:09:12;8.07;;;6.83;;
11139;SDS011;5624;49.388;11.350;2022-08-23T04:11:40;7.47;;;6.77;;
11139;SDS011;5624;49.388;11.350;2022-08-23T04:14:06;7.27;;;6.50;;
11139;SDS011;5624;49.388;11.350;2022-08-23T04:16:33;7.90;;;6.50;;
11139;SDS011;5624;49.388;11.350;2022-08-23T04:19:06;7.90;;;6.73;;
11139;SDS011;5624;49.388;11.350;2022-08-23T04:21:33;8.40;;;6.67;;
11139;SDS011;5624;49.388;11.350;2022-08-23T04:24:02;7.73;;;7.03;;
11139;SDS011;5624;49.388;11.350;2022-08-23T04:26:28;9.03;;;6.87;;
11139;SDS011;5624;49.388;11.350;2022-08-23T04:28:54;7.07;;;6.37;;
11139;SDS011;5624;49.388;11.350;2022-08-23T04:31:21;8.77;;;6.50;;
11139;SDS011;5624;49.388;11.350;2022-08-23T04:33:50;8.90;;;7.83;;
11139;SDS011;5624;49.388;11.350;2022-08-23T04:36:17;8.40;;;7.13;;
11139;SDS011;5624;49.388;11.350;2022-08-23T04:38:42;8.27;;;6.93;;
11139;SDS011;5624;49.388;11.350;2022-08-23T04:41:08;10.37;;;6.93;;
11139;SDS011;5624;49.388;11.350;2022-08-23T04:43:52;9.33;;;7.00;;
11139;SDS011;5624;49.388;11.350;2022-08-23T04:46:20;10.83;;;7.57;;
11139;SDS011;5624;49.388;11.350;2022-08-23T04:48:46;8.73;;;7.30;;
11139;SDS011;5624;49.388;11.350;2022-08-23T04:51:12;9.60;;;7.83;;
11139;SDS011;5624;49.388;11.350;2022-08-23T04:53:39;8.27;;;7.20;;
11139;SDS011;5624;49.388;11.350;2022-08-23T04:56:05;8.13;;;6.87;;
11139;SDS011;5624;49.388;11.350;2022-08-23T04:58:32;7.50;;;6.70;;
11139;SDS011;5624;49.388;11.350;2022-08-23T05:01:01;8.50;;;7.60;;
11139;SDS011;5624;49.388;11.350;2022-08-23T05:03:31;8.60;;;7.70;;
11139;SDS011;5624;49.388;11.350;2022-08-23T05:05:58;12.83;;;7.07;;
11139;SDS011;5624;49.388;11.350;2022-08-23T05:08:25;11.37;;;7.63;;
11139;SDS011;5624;49.388;11.350;2022-08-23T05:10:52;8.43;;;7.27;;
11139;SDS011;5624;49.388;11.350;2022-08-23T05:13:18;8.77;;;7.50;;
11139;SDS011;5624;49.388;11.350;2022-08-23T05:15:48;9.43;;;7.07;;
11139;SDS011;5624;49.388;11.350;2022-08-23T05:18:16;9.03;;;7.10;;
11139;SDS011;5624;49.388;11.350;2022-08-23T05:20:42;8.90;;;6.57;;
11139;SDS011;5624;49.388;11.350;2022-08-23T05:23:08;10.83;;;7.60;;
11139;SDS011;5624;49.388;11.350;2022-08-23T05:25:33;8.20;;;7.00;;
11139;SDS011;5624;49.388;11.350;2022-08-23T05:28:14;9.07;;;7.50;;
11139;SDS011;5624;49.388;11.350;2022-08-23T05:30:41;12.37;;;7.73;;
11139;SDS011;5624;49.388;11.350;2022-08-23T05:33:07;8.47;;;6.50;;
11139;SDS011;5624;49.388;11.350;2022-08-23T05:35:33;8.80;;;6.83;;
11139;SDS011;5624;49.388;11.350;2022-08-23T05:37:59;9.10;;;6.07;;
11139;SDS011;5624;49.388;11.350;2022-08-23T05:40:26;8.30;;;6.47;;
11139;SDS011;5624;49.388;11.350;2022-08-23T05:42:53;11.73;;;6.90;;
11139;SDS011;5624;49.388;11.350;2022-08-23T05:45:20;8.73;;;6.70;;
11139;SDS011;5624;49.388;11.350;2022-08-23T05:47:45;7.73;;;6.47;;
11139;SDS011;5624;49.388;11.350;2022-08-23T05:50:12;11.07;;;8.10;;
11139;SDS011;5624;49.388;11.350;2022-08-23T05:52:38;9.90;;;6.93;;
11139;SDS011;5624;49.388;11.350;2022-08-23T05:55:04;8.43;;;7.23;;
11139;SDS011;5624;49.388;11.350;2022-08-23T05:57:35;7.57;;;6.00;;
11139;SDS011;5624;49.388;11.350;2022-08-23T06:00:03;8.13;;;6.20;;
11139;SDS011;5624;49.388;11.350;2022-08-23T06:02:31;6.53;;;5.50;;
11139;SDS011;5624;49.388;11.350;2022-08-23T06:04:57;6.73;;;6.00;;
11139;SDS011;5624;49.388;11.350;2022-08-23T06:07:23;8.40;;;5.90;;
11139;SDS011;5624;49.388;11.350;2022-08-23T06:09:49;6.37;;;5.43;;
11139;SDS011;5624;49.388;11.350;2022-08-23T06:12:14;7.53;;;5.23;;
11139;SDS011;5624;49.388;11.350;2022-08-23T06:14:40;9.33;;;6.10;;
11139;SDS011;5624;49.388;11.350;2022-08-23T06:17:06;6.20;;;5.60;;
11139;SDS011;5624;49.388;11.350;2022-08-23T06:19:32;6.93;;;5.80;;
11139;SDS011;5624;49.388;11.350;2022-08-23T06:21:58;7.35;;;5.70;;
11139;SDS011;5624;49.388;11.350;2022-08-23T06:24:23;7.10;;;5.95;;
11139;SDS011;5624;49.388;11.350;2022-08-23T06:26:50;8.60;;;6.20;;
11139;SDS011;5624;49.388;11.350;2022-08-23T06:29:17;9.25;;;5.90;;
11139;SDS011;5624;49.388;11.350;2022-08-23T06:31:45;8.00;;;6.28;;
11139;SDS011;5624;49.388;11.350;2022-08-23T06:34:17;12.38;;;6.70;;
11139;SDS011;5624;49.388;11.350;2022-08-23T06:36:55;9.45;;;6.43;;
11139;SDS011;5624;49.388;11.350;2022-08-23T06:39:24;8.50;;;6.55;;
11139;SDS011;5624;49.388;11.350;2022-08-23T06:41:51;8.95;;;5.90;;
11139;SDS011;5624;49.388;11.350;2022-08-23T06:44:18;7.70;;;5.85;;
11139;SDS011;5624;49.388;11.350;2022-08-23T06:46:44;8.15;;;5.32;;
11139;SDS011;5624;49.388;11.350;2022-08-23T06:49:11;9.45;;;5.03;;
11139;SDS011;5624;49.388;11.350;2022-08-23T06:51:38;10.25;;;5.50;;
11139;SDS011;5624;49.388;11.350;2022-08-23T06:54:08;6.88;;;4.50;;
11139;SDS011;5624;49.388;11.350;2022-08-23T06:56:37;7.80;;;4.60;;
11139;SDS011;5624;49.388;11.350;2022-08-23T06:59:04;5.90;;;4.63;;
11139;SDS011;5624;49.388;11.350;2022-08-23T07:04:16;7.35;;;4.25;;
11139;SDS011;5624;49.388;11.350;2022-08-23T07:06:44;5.28;;;3.53;;
11139;SDS011;5624;49.388;11.350;2022-08-23T07:09:09;5.55;;;3.50;;
11139;SDS011;5624;49.388;11.350;2022-08-23T07:11:36;4.47;;;3.67;;
11139;SDS011;5624;49.388;11.350;2022-08-23T07:14:04;4.22;;;3.25;;
11139;SDS011;5624;49.388;11.350;2022-08-23T07:16:35;5.47;;;3.45;;
11139;SDS011;5624;49.388;11.350;2022-08-23T07:19:03;6.20;;;3.15;;
11139;SDS011;5624;49.388;11.350;2022-08-23T07:21:29;6.13;;;2.75;;
11139;SDS011;5624;49.388;11.350;2022-08-23T07:23:55;5.35;;;2.55;;
11139;SDS011;5624;49.388;11.350;2022-08-23T07:26:21;4.80;;;2.85;;
11139;SDS011;5624;49.388;11.350;2022-08-23T07:28:48;5.40;;;2.60;;
11139;SDS011;5624;49.388;11.350;2022-08-23T07:31:16;4.45;;;2.42;;
11139;SDS011;5624;49.388;11.350;2022-08-23T07:33:48;3.83;;;2.25;;
11139;SDS011;5624;49.388;11.350;2022-08-23T07:36:15;3.80;;;2.20;;
11139;SDS011;5624;49.388;11.350;2022-08-23T07:38:43;3.80;;;1.92;;
11139;SDS011;5624;49.388;11.350;2022-08-23T07:41:10;5.75;;;2.60;;
11139;SDS011;5624;49.388;11.350;2022-08-23T07:43:37;5.05;;;2.30;;
11139;SDS011;5624;49.388;11.350;2022-08-23T07:46:04;4.13;;;2.53;;
11139;SDS011;5624;49.388;11.350;2022-08-23T07:48:31;7.70;;;2.80;;
11139;SDS011;5624;49.388;11.350;2022-08-23T07:50:58;4.72;;;2.22;;
11139;SDS011;5624;49.388;11.350;2022-08-23T07:53:26;3.65;;;2.25;;
11139;SDS011;5624;49.388;11.350;2022-08-23T07:55:53;4.60;;;1.77;;
11139;SDS011;5624;49.388;11.350;2022-08-23T07:58:20;4.13;;;2.00;;
11139;SDS011;5624;49.388;11.350;2022-08-23T08:00:48;3.05;;;1.80;;
11139;SDS011;5624;49.388;11.350;2022-08-23T08:03:15;6.75;;;2.22;;
11139;SDS011;5624;49.388;11.350;2022-08-23T08:05:41;4.47;;;1.98;;
11139;SDS011;5624;49.388;11.350;2022-08-23T08:08:07;4.13;;;1.50;;
11139;SDS011;5624;49.388;11.350;2022-08-23T08:10:37;5.05;;;1.90;;
11139;SDS011;5624;49.388;11.350;2022-08-23T08:13:05;3.25;;;1.70;;
11139;SDS011;5624;49.388;11.350;2022-08-23T08:15:32;5.00;;;1.80;;
11139;SDS011;5624;49.388;11.350;2022-08-23T08:18:00;4.15;;;1.70;;
11139;SDS011;5624;49.388;11.350;2022-08-23T08:20:26;3.25;;;1.58;;
11139;SDS011;5624;49.388;11.350;2022-08-23T08:22:53;3.35;;;1.52;;
11139;SDS011;5624;49.388;11.350;2022-08-23T08:25:19;1.55;;;1.27;;
11139;SDS011;5624;49.388;11.350;2022-08-23T08:27:47;2.35;;;1.25;;
11139;SDS011;5624;49.388;11.350;2022-08-23T08:30:15;2.08;;;1.33;;
11139;SDS011;5624;49.388;11.350;2022-08-23T08:32:41;3.50;;;1.52;;
11139;SDS011;5624;49.388;11.350;2022-08-23T08:35:07;2.50;;;1.30;;
11139;SDS011;5624;49.388;11.350;2022-08-23T08:37:34;2.35;;;1.02;;
11139;SDS011;5624;49.388;11.350;2022-08-23T08:40:03;2.72;;;1.02;;
11139;SDS011;5624;49.388;11.350;2022-08-23T08:45:10;2.22;;;0.75;;
11139;SDS011;5624;49.388;11.350;2022-08-23T08:50:27;2.53;;;0.93;;
11139;SDS011;5624;49.388;11.350;2022-08-23T08:53:09;1.40;;;0.90;;
11139;SDS011;5624;49.388;11.350;2022-08-23T08:55:45;1.05;;;0.70;;
11139;SDS011;5624;49.388;11.350;2022-08-23T08:58:18;1.88;;;0.75;;
11139;SDS011;5624;49.388;11.350;2022-08-23T09:00:53;1.10;;;0.60;;
11139;SDS011;5624;49.388;11.350;2022-08-23T09:03:20;3.28;;;0.93;;
11139;SDS011;5624;49.388;11.350;2022-08-23T09:05:48;0.82;;;0.40;;
11139;SDS011;5624;49.388;11.350;2022-08-23T09:19:05;4.82;;;0.80;;
11139;SDS011;5624;49.388;11.350;2022-08-23T09:21:32;3.60;;;0.80;;
11139;SDS011;5624;49.388;11.350;2022-08-23T09:24:07;1.13;;;0.63;;
11139;SDS011;5624;49.388;11.350;2022-08-23T09:26:33;2.00;;;0.70;;
11139;SDS011;5624;49.388;11.350;2022-08-23T09:29:02;0.77;;;0.52;;
11139;SDS011;5624;49.388;11.350;2022-08-23T09:31:43;2.92;;;0.90;;
11139;SDS011;5624;49.388;11.350;2022-08-23T09:34:17;2.92;;;0.80;;
11139;SDS011;5624;49.388;11.350;2022-08-23T09:36:45;0.50;;;0.40;;
11139;SDS011;5624;49.388;11.350;2022-08-23T09:39:22;1.52;;;0.70;;
11139;SDS011;5624;49.388;11.350;2022-08-23T09:41:48;1.02;;;0.63;;
11139;SDS011;5624;49.388;11.350;2022-08-23T09:44:28;0.85;;;0.30;;
11139;SDS011;5624;49.388;11.350;2022-08-23T09:47:05;0.95;;;0.52;;
11139;SDS011;5624;49.388;11.350;2022-08-23T09:49:32;0.98;;;0.63;;
11139;SDS011;5624;49.388;11.350;2022-08-23T09:51:59;0.77;;;0.47;;
11139;SDS011;5624;49.388;11.350;2022-08-23T09:54:35;1.08;;;0.50;;
11139;SDS011;5624;49.388;11.350;2022-08-23T09:57:03;0.60;;;0.60;;
11139;SDS011;5624;49.388;11.350;2022-08-23T09:59:37;1.30;;;0.70;;
11139;SDS011;5624;49.388;11.350;2022-08-23T10:02:25;1.02;;;0.60;;
11139;SDS011;5624;49.388;11.350;2022-08-23T10:05:00;0.95;;;0.60;;
11139;SDS011;5624;49.388;11.350;2022-08-23T10:07:39;3.38;;;1.00;;
11139;SDS011;5624;49.388;11.350;2022-08-23T10:12:51;1.75;;;0.43;;
11139;SDS011;5624;49.388;11.350;2022-08-23T10:15:19;0.77;;;0.40;;
11139;SDS011;5624;49.388;11.350;2022-08-23T10:17:56;2.53;;;0.93;;
11139;SDS011;5624;49.388;11.350;2022-08-23T10:20:40;0.98;;;0.60;;
11139;SDS011;5624;49.388;11.350;2022-08-23T10:23:28;1.35;;;0.80;;
11139;SDS011;5624;49.388;11.350;2022-08-23T10:26:00;1.77;;;0.60;;
11139;SDS011;5624;49.388;11.350;2022-08-23T10:29:10;1.42;;;0.80;;
11139;SDS011;5624;49.388;11.350;2022-08-23T10:31:59;0.77;;;0.50;;
11139;SDS011;5624;49.388;11.350;2022-08-23T10:37:41;1.25;;;0.80;;
11139;SDS011;5624;49.388;11.350;2022-08-23T10:43:14;1.25;;;0.68;;
11139;SDS011;5624;49.388;11.350;2022-08-23T10:45:50;0.95;;;0.70;;
11139;SDS011;5624;49.388;11.350;2022-08-23T10:50:53;0.50;;;0.50;;
11139;SDS011;5624;49.388;11.350;2022-08-23T10:56:43;1.38;;;0.70;;
11139;SDS011;5624;49.388;11.350;2022-08-23T10:59:10;0.52;;;0.52;;
11139;SDS011;5624;49.388;11.350;2022-08-23T11:07:14;0.90;;;0.60;;
11139;SDS011;5624;49.388;11.350;2022-08-23T11:12:58;0.88;;;0.57;;
11139;SDS011;5624;49.388;11.350;2022-08-23T11:31:48;1.02;;;0.80;;
11139;SDS011;5624;49.388;11.350;2022-08-23T11:34:27;1.02;;;0.65;;
11139;SDS011;5624;49.388;11.350;2022-08-23T11:42:43;1.73;;;0.73;;
11139;SDS011;5624;49.388;11.350;2022-08-23T11:47:50;1.33;;;0.90;;
11139;SDS011;5624;49.388;11.350;2022-08-23T11:50:36;1.67;;;1.27;;
11139;SDS011;5624;49.388;11.350;2022-08-23T11:58:29;3.13;;;0.90;;
11139;SDS011;5624;49.388;11.350;2022-08-23T12:01:11;0.88;;;0.73;;
11139;SDS011;5624;49.388;11.350;2022-08-23T12:03:55;1.02;;;0.82;;
11139;SDS011;5624;49.388;11.350;2022-08-23T12:06:47;1.50;;;0.90;;
11139;SDS011;5624;49.388;11.350;2022-08-23T12:25:20;2.13;;;1.00;;
11139;SDS011;5624;49.388;11.350;2022-08-23T12:27:51;1.52;;;0.80;;
11139;SDS011;5624;49.388;11.350;2022-08-23T12:30:30;1.02;;;0.80;;
11139;SDS011;5624;49.388;11.350;2022-08-23T12:33:19;1.33;;;0.82;;
11139;SDS011;5624;49.388;11.350;2022-08-23T12:40:58;2.40;;;0.80;;
11139;SDS011;5624;49.388;11.350;2022-08-23T12:46:38;0.85;;;0.85;;
11139;SDS011;5624;49.388;11.350;2022-08-23T12:49:07;1.75;;;0.90;;
11139;SDS011;5624;49.388;11.350;2022-08-23T12:51:50;1.67;;;0.73;;
11139;SDS011;5624;49.388;11.350;2022-08-23T12:54:19;3.05;;;0.90;;
11139;SDS011;5624;49.388;11.350;2022-08-23T12:56:48;0.70;;;0.70;;
11139;SDS011;5624;49.388;11.350;2022-08-23T13:02:10;3.10;;;1.00;;
11139;SDS011;5624;49.388;11.350;2022-08-23T13:04:42;1.58;;;0.95;;
11139;SDS011;5624;49.388;11.350;2022-08-23T13:07:10;1.05;;;0.70;;
11139;SDS011;5624;49.388;11.350;2022-08-23T13:09:40;0.95;;;0.68;;
11139;SDS011;5624;49.388;11.350;2022-08-23T13:12:08;1.83;;;0.55;;
11139;SDS011;5624;49.388;11.350;2022-08-23T13:14:45;3.08;;;0.77;;
11139;SDS011;5624;49.388;11.350;2022-08-23T13:17:17;1.73;;;0.60;;
11139;SDS011;5624;49.388;11.350;2022-08-23T13:19:44;1.08;;;0.63;;
11139;SDS011;5624;49.388;11.350;2022-08-23T13:27:48;0.90;;;0.65;;
11139;SDS011;5624;49.388;11.350;2022-08-23T13:32:50;3.47;;;0.60;;
11139;SDS011;5624;49.388;11.350;2022-08-23T13:35:37;1.15;;;0.57;;
11139;SDS011;5624;49.388;11.350;2022-08-23T13:38:28;0.73;;;0.50;;
11139;SDS011;5624;49.388;11.350;2022-08-23T13:41:02;1.90;;;0.90;;
11139;SDS011;5624;49.388;11.350;2022-08-23T13:46:18;1.67;;;0.90;;
11139;SDS011;5624;49.388;11.350;2022-08-23T13:54:00;1.88;;;0.70;;
11139;SDS011;5624;49.388;11.350;2022-08-23T13:56:28;2.45;;;0.80;;
11139;SDS011;5624;49.388;11.350;2022-08-23T13:58:58;2.35;;;0.90;;
11139;SDS011;5624;49.388;11.350;2022-08-23T14:01:41;1.13;;;0.70;;
11139;SDS011;5624;49.388;11.350;2022-08-23T14:04:07;1.35;;;0.90;;
11139;SDS011;5624;49.388;11.350;2022-08-23T14:06:32;1.27;;;0.90;;
11139;SDS011;5624;49.388;11.350;2022-08-23T14:08:58;1.85;;;0.60;;
11139;SDS011;5624;49.388;11.350;2022-08-23T14:11:24;2.00;;;0.82;;
11139;SDS011;5624;49.388;11.350;2022-08-23T14:13:49;1.23;;;0.80;;
11139;SDS011;5624;49.388;11.350;2022-08-23T14:16:26;1.70;;;0.93;;
11139;SDS011;5624;49.388;11.350;2022-08-23T14:18:54;1.10;;;1.00;;
11139;SDS011;5624;49.388;11.350;2022-08-23T14:21:20;2.10;;;0.93;;
11139;SDS011;5624;49.388;11.350;2022-08-23T14:23:45;2.05;;;0.80;;
11139;SDS011;5624;49.388;11.350;2022-08-23T14:26:16;1.80;;;0.95;;
11139;SDS011;5624;49.388;11.350;2022-08-23T14:28:43;2.03;;;1.00;;
11139;SDS011;5624;49.388;11.350;2022-08-23T14:31:10;1.05;;;0.82;;
11139;SDS011;5624;49.388;11.350;2022-08-23T14:33:36;1.80;;;1.08;;
11139;SDS011;5624;49.388;11.350;2022-08-23T14:36:02;1.20;;;1.10;;
11139;SDS011;5624;49.388;11.350;2022-08-23T14:38:28;1.13;;;0.90;;
11139;SDS011;5624;49.388;11.350;2022-08-23T14:40:55;1.55;;;1.05;;
11139;SDS011;5624;49.388;11.350;2022-08-23T14:43:23;1.40;;;1.00;;
11139;SDS011;5624;49.388;11.350;2022-08-23T14:45:50;2.55;;;1.10;;
11139;SDS011;5624;49.388;11.350;2022-08-23T14:48:17;1.60;;;0.90;;
11139;SDS011;5624;49.388;11.350;2022-08-23T14:50:43;1.65;;;1.05;;
11139;SDS011;5624;49.388;11.350;2022-08-23T14:53:11;1.52;;;0.90;;
11139;SDS011;5624;49.388;11.350;2022-08-23T14:55:38;1.27;;;0.93;;
11139;SDS011;5624;49.388;11.350;2022-08-23T14:58:04;3.03;;;1.30;;
11139;SDS011;5624;49.388;11.350;2022-08-23T15:00:31;1.35;;;1.10;;
11139;SDS011;5624;49.388;11.350;2022-08-23T15:03:00;1.10;;;1.00;;
11139;SDS011;5624;49.388;11.350;2022-08-23T15:05:27;5.03;;;2.33;;
11139;SDS011;5624;49.388;11.350;2022-08-23T15:07:53;6.88;;;1.85;;
11139;SDS011;5624;49.388;11.350;2022-08-23T15:10:19;2.05;;;1.13;;
11139;SDS011;5624;49.388;11.350;2022-08-23T15:12:45;2.70;;;1.10;;
11139;SDS011;5624;49.388;11.350;2022-08-23T15:15:12;1.38;;;1.23;;
11139;SDS011;5624;49.388;11.350;2022-08-23T15:17:50;2.05;;;1.33;;
11139;SDS011;5624;49.388;11.350;2022-08-23T15:20:23;1.50;;;1.00;;
11139;SDS011;5624;49.388;11.350;2022-08-23T15:22:51;2.97;;;0.90;;
11139;SDS011;5624;49.388;11.350;2022-08-23T15:25:17;2.40;;;1.05;;
11139;SDS011;5624;49.388;11.350;2022-08-23T15:27:43;1.95;;;0.95;;
11139;SDS011;5624;49.388;11.350;2022-08-23T15:30:11;2.05;;;0.90;;
11139;SDS011;5624;49.388;11.350;2022-08-23T15:32:38;4.10;;;0.80;;
11139;SDS011;5624;49.388;11.350;2022-08-23T15:35:04;1.63;;;1.08;;
11139;SDS011;5624;49.388;11.350;2022-08-23T15:37:31;1.33;;;1.10;;
11139;SDS011;5624;49.388;11.350;2022-08-23T15:39:58;1.00;;;0.80;;
11139;SDS011;5624;49.388;11.350;2022-08-23T15:42:24;0.90;;;0.70;;
11139;SDS011;5624;49.388;11.350;2022-08-23T15:44:49;1.55;;;1.00;;
11139;SDS011;5624;49.388;11.350;2022-08-23T15:47:17;3.05;;;0.90;;
11139;SDS011;5624;49.388;11.350;2022-08-23T15:49:47;2.08;;;0.90;;
11139;SDS011;5624;49.388;11.350;2022-08-23T15:52:13;2.05;;;0.95;;
11139;SDS011;5624;49.388;11.350;2022-08-23T15:54:39;1.98;;;0.85;;
11139;SDS011;5624;49.388;11.350;2022-08-23T15:57:06;0.90;;;0.70;;
11139;SDS011;5624;49.388;11.350;2022-08-23T15:59:32;0.90;;;0.70;;
11139;SDS011;5624;49.388;11.350;2022-08-23T16:02:01;1.98;;;0.90;;
11139;SDS011;5624;49.388;11.350;2022-08-23T16:04:28;0.70;;;0.65;;
11139;SDS011;5624;49.388;11.350;2022-08-23T16:06:54;0.70;;;0.50;;
11139;SDS011;5624;49.388;11.350;2022-08-23T16:09:21;0.85;;;0.73;;
11139;SDS011;5624;49.388;11.350;2022-08-23T16:11:48;1.50;;;0.70;;
11139;SDS011;5624;49.388;11.350;2022-08-23T16:14:15;2.17;;;1.05;;
11139;SDS011;5624;49.388;11.350;2022-08-23T16:16:41;2.25;;;1.20;;
11139;SDS011;5624;49.388;11.350;2022-08-23T16:19:10;1.42;;;0.85;;
11139;SDS011;5624;49.388;11.350;2022-08-23T16:21:38;1.17;;;0.80;;
11139;SDS011;5624;49.388;11.350;2022-08-23T16:24:05;1.42;;;0.70;;
11139;SDS011;5624;49.388;11.350;2022-08-23T16:26:34;1.25;;;0.60;;
11139;SDS011;5624;49.388;11.350;2022-08-23T16:29:04;0.80;;;0.80;;
11139;SDS011;5624;49.388;11.350;2022-08-23T16:31:33;1.25;;;0.80;;
11139;SDS011;5624;49.388;11.350;2022-08-23T16:34:04;2.40;;;0.90;;
11139;SDS011;5624;49.388;11.350;2022-08-23T16:36:34;1.02;;;0.68;;
11139;SDS011;5624;49.388;11.350;2022-08-23T16:39:00;1.02;;;0.65;;
11139;SDS011;5624;49.388;11.350;2022-08-23T16:41:27;2.78;;;0.90;;
11139;SDS011;5624;49.388;11.350;2022-08-23T16:43:53;1.20;;;0.85;;
11139;SDS011;5624;49.388;11.350;2022-08-23T16:46:19;2.28;;;1.75;;
11139;SDS011;5624;49.388;11.350;2022-08-23T16:48:47;0.80;;;0.80;;
11139;SDS011;5624;49.388;11.350;2022-08-23T16:51:13;1.00;;;0.85;;
11139;SDS011;5624;49.388;11.350;2022-08-23T16:53:39;0.70;;;0.70;;
11139;SDS011;5624;49.388;11.350;2022-08-23T16:56:05;1.20;;;0.90;;
11139;SDS011;5624;49.388;11.350;2022-08-23T16:58:31;1.70;;;0.82;;
11139;SDS011;5624;49.388;11.350;2022-08-23T17:00:58;3.13;;;1.42;;